Glasgow, Missouri
Current Conditions -  °F | °C
As of 3:35 PM on Friday 24 Oct 2014 (Local Time) from KVER Reporting Station
Overcast Overcast  
Wind Chill: 75°   Ceiling: 4500
Heat Index: 75°   Visibility: 10mi
Dew Point: 58°   Wind: 7mph
Humidity: 56%   Direction: 210°SSW
Pressure: 29.98"   Gusts: NA
Location:  39.23°N, 92.85°W
Report Text: KVER 242035Z AUTO 21006KT 10SM OVC045 24/15 A2998 RMK AO2 T02390146
Loading
Personal Weather Stations






























Interactive Weather Map New forecast layout! Learn more

10-Day Weather Forecast

Advertisements
Track Severe Weather on mobile